Time;durP1;ratioP1;P1;durP2;ratioP2;P2;SDS_P1;SDS_P2;PMS_P1;PMS_P2;Temp;Humidity;BMP_temperature;BMP_pressure;BME280_temperature;BME280_humidity;BME280_pressure;Samples;Min_cycle;Max_cycle;Signal;HPM_P1;HPM_P2
2022/01/11 03:08:05;;;;;;;;;;;;;;;;;;;;;
2022/01/11 03:11:47;;;;;;;;;;;;;;;;;;;;;
2022/01/11 03:22:22;;;;;;;;;;;;;;;;;;;;;
2022/01/11 03:28:33;;;;;;;30.85;17.80;;;;;;;;;;4790263;29;20045;-76
2022/01/11 03:34:34;;;;;;;28.63;17.70;;;;;;;;;;4842008;29;20362;-76
2022/01/11 03:37:10;;;;;;;29.30;17.77;;;;;;;;;;4831071;29;20049;-77
2022/01/11 03:40:06;;;;;;;;;;;;;;;;;;;;;
2022/01/11 03:42:57;;;;;;;28.25;16.55;;;;;;;;;;4859025;29;20129;-76
2022/01/11 03:45:46;;;;;;;;;;;;;;;;;;;;;
2022/01/11 03:52:00;;;;;;;;;;;;;;;;;;;;;
2022/01/11 03:54:43;;;;;;;27.05;17.20;;;;;;;;;;4867154;29;20047;-75
2022/01/11 03:57:15;;;;;;;29.50;17.83;;;;;;;;;;4872323;29;20040;-75
2022/01/11 03:59:44;;;;;;;28.73;17.58;;;;;;;;;;4868109;29;20172;-75
2022/01/11 04:02:31;;;;;;;27.85;16.52;;;;;;;;;;4908500;29;20156;-76
2022/01/11 04:05:11;;;;;;;27.15;17.45;;;;;;;;;;4883209;29;20129;-75
2022/01/11 04:07:52;;;;;;;31.58;18.85;;;;;;;;;;4884905;29;20053;-76
2022/01/11 04:10:39;;;;;;;27.52;17.48;;;;;;;;;;4874796;29;20410;-76
2022/01/11 04:13:19;;;;;;;34.03;18.75;;;;;;;;;;4869863;29;20051;-75
2022/01/11 04:15:56;;;;;;;30.45;18.92;;;;;;;;;;4854228;29;20045;-75
2022/01/11 04:18:33;;;;;;;36.35;20.02;;;;;;;;;;4877846;29;20104;-76
2022/01/11 04:21:17;;;;;;;30.58;18.08;;;;;;;;;;4867781;29;20118;-76
2022/01/11 04:23:54;;;;;;;;;;;;;;;;;;4869690;29;20365;-76
2022/01/11 04:26:21;;;;;;;29.08;19.08;;;;;;;;;;4854005;29;19946;-76
2022/01/11 04:28:50;;;;;;;31.75;19.45;;;;;;;;;;4869527;29;20092;-76
2022/01/11 04:31:19;;;;;;;33.45;20.50;;;;;;;;;;4866331;29;20406;-77
2022/01/11 04:33:53;;;;;;;32.17;20.92;;;;;;;;;;4857474;29;20036;-76
2022/01/11 04:36:22;;;;;;;31.77;19.08;;;;;;;;;;4893598;29;20450;-76
2022/01/11 04:38:57;;;;;;;34.60;20.13;;;;;;;;;;4866286;29;20053;-76
2022/01/11 04:41:26;;;;;;;37.10;20.70;;;;;;;;;;4868177;29;20317;-76
2022/01/11 04:43:59;;;;;;;35.72;20.58;;;;;;;;;;4868182;29;20495;-80
2022/01/11 04:46:28;;;;;;;34.75;20.73;;;;;;;;;;4864378;29;20127;-76
2022/01/11 04:49:00;;;;;;;34.95;21.38;;;;;;;;;;4873356;29;20425;-75
2022/01/11 04:51:29;;;;;;;37.47;20.08;;;;;;;;;;4867466;29;20084;-76
2022/01/11 04:54:05;;;;;;;35.22;19.60;;;;;;;;;;4866988;29;20045;-76
2022/01/11 04:56:34;;;;;;;34.55;19.60;;;;;;;;;;4866899;29;20041;-76
2022/01/11 04:59:05;;;;;;;35.95;20.92;;;;;;;;;;4867783;29;20049;-76
2022/01/11 05:01:42;;;;;;;;;;;;;;;;;;;;;
2022/01/11 05:04:14;;;;;;;32.75;19.38;;;;;;;;;;4882400;29;20083;-76
2022/01/11 05:06:54;;;;;;;42.10;21.83;;;;;;;;;;4883324;29;20072;-78
2022/01/11 05:09:21;;;;;;;35.75;20.75;;;;;;;;;;4883679;29;20059;-76
2022/01/11 05:11:53;;;;;;;39.05;20.95;;;;;;;;;;4867597;29;20111;-76
2022/01/11 05:14:19;;;;;;;40.80;20.45;;;;;;;;;;4863947;29;20033;-76
2022/01/11 05:16:51;;;;;;;41.90;21.30;;;;;;;;;;4865786;29;20438;-76
2022/01/11 05:19:19;;;;;;;34.80;20.48;;;;;;;;;;4875866;29;20092;-76
2022/01/11 05:21:46;;;;;;;33.38;19.48;;;;;;;;;;4881213;29;20416;-76
2022/01/11 05:24:12;;;;;;;38.33;19.98;;;;;;;;;;4866169;29;20053;-76
2022/01/11 05:26:39;;;;;;;32.15;19.75;;;;;;;;;;4867150;29;20445;-76
2022/01/11 05:29:05;;;;;;;35.50;20.38;;;;;;;;;;4883244;29;20123;-76
2022/01/11 05:31:33;;;;;;;32.33;20.17;;;;;;;;;;4867381;29;20067;-76
2022/01/11 05:34:08;;;;;;;35.40;19.45;;;;;;;;;;4866592;29;20040;-76
2022/01/11 05:36:37;;;;;;;32.70;18.67;;;;;;;;;;4875665;29;20068;-76
2022/01/11 05:39:03;;;;;;;37.20;20.65;;;;;;;;;;4867482;29;20079;-76
2022/01/11 05:41:30;;;;;;;38.47;20.48;;;;;;;;;;4867509;29;20040;-76
2022/01/11 05:43:57;;;;;;;39.95;21.92;;;;;;;;;;4865948;29;20107;-76
2022/01/11 05:46:23;;;;;;;41.00;22.13;;;;;;;;;;4866097;29;20049;-77
2022/01/11 05:48:52;;;;;;;36.28;20.27;;;;;;;;;;4866750;29;20048;-77
2022/01/11 05:51:19;;;;;;;38.88;20.42;;;;;;;;;;4864859;29;20052;-76
2022/01/11 05:53:45;;;;;;;32.40;18.75;;;;;;;;;;4866438;29;20441;-76
2022/01/11 05:56:11;;;;;;;38.25;20.20;;;;;;;;;;4866353;29;20092;-76
2022/01/11 05:58:37;;;;;;;33.40;19.10;;;;;;;;;;4866122;29;20039;-77
2022/01/11 06:01:03;;;;;;;37.47;19.42;;;;;;;;;;4867600;29;20131;-76
2022/01/11 06:03:30;;;;;;;30.88;17.73;;;;;;;;;;4867766;29;20053;-76
2022/01/11 06:05:56;;;;;;;30.52;17.27;;;;;;;;;;4852142;29;20045;-76
2022/01/11 06:08:22;;;;;;;31.63;16.83;;;;;;;;;;4883120;29;20116;-76
2022/01/11 06:10:48;;;;;;;32.83;17.50;;;;;;;;;;4865266;29;20139;-76
2022/01/11 06:13:15;;;;;;;32.05;16.25;;;;;;;;;;4866214;29;20054;-77
2022/01/11 06:15:41;;;;;;;29.92;16.70;;;;;;;;;;4865451;29;20041;-76
2022/01/11 06:18:07;;;;;;;29.00;16.15;;;;;;;;;;4881577;29;20101;-76
2022/01/11 06:20:34;;;;;;;27.63;15.98;;;;;;;;;;4881716;29;20059;-76
2022/01/11 06:23:00;;;;;;;27.77;15.77;;;;;;;;;;4867832;29;20041;-76
2022/01/11 06:25:26;;;;;;;29.42;17.17;;;;;;;;;;4866165;29;20063;-76
2022/01/11 06:27:52;;;;;;;36.78;18.27;;;;;;;;;;4865520;29;20036;-76
2022/01/11 06:30:18;;;;;;;32.85;17.63;;;;;;;;;;4865936;29;20183;-76
2022/01/11 06:32:45;;;;;;;32.80;17.63;;;;;;;;;;4864639;29;20471;-76
2022/01/11 06:35:12;;;;;;;31.35;17.42;;;;;;;;;;4858341;29;20358;-76
2022/01/11 06:37:38;;;;;;;31.70;17.40;;;;;;;;;;4877552;29;20083;-76
2022/01/11 06:40:05;;;;;;;34.10;18.80;;;;;;;;;;4866501;29;20040;-76
2022/01/11 06:42:32;;;;;;;30.90;17.70;;;;;;;;;;4867107;29;20079;-76
2022/01/11 06:44:58;;;;;;;36.00;18.50;;;;;;;;;;4866942;29;20472;-77
2022/01/11 06:47:27;;;;;;;33.20;17.75;;;;;;;;;;4867510;29;20044;-78
2022/01/11 06:49:53;;;;;;;34.15;17.08;;;;;;;;;;4866432;29;20116;-76
2022/01/11 06:52:20;;;;;;;32.55;17.90;;;;;;;;;;4867289;29;20127;-75
2022/01/11 06:54:46;;;;;;;32.60;18.02;;;;;;;;;;4863601;29;20033;-76
2022/01/11 06:57:12;;;;;;;33.45;17.27;;;;;;;;;;4862570;29;20486;-76
2022/01/11 06:59:38;;;;;;;32.15;17.02;;;;;;;;;;4881171;29;20429;-76
2022/01/11 07:02:05;;;;;;;35.28;17.58;;;;;;;;;;4868552;29;20052;-76
2022/01/11 07:04:31;;;;;;;34.25;18.02;;;;;;;;;;4866263;29;20042;-76
2022/01/11 07:06:57;;;;;;;34.97;17.88;;;;;;;;;;4870463;29;20112;-76
2022/01/11 07:09:23;;;;;;;33.30;16.50;;;;;;;;;;4884628;29;20036;-77
2022/01/11 07:11:50;;;;;;;33.88;17.13;;;;;;;;;;4886120;29;20533;-77
2022/01/11 07:14:16;;;;;;;35.78;17.33;;;;;;;;;;4869824;29;20441;-77
2022/01/11 07:16:43;;;;;;;36.03;18.40;;;;;;;;;;4869060;29;20040;-76
2022/01/11 07:19:10;;;;;;;34.33;19.35;;;;;;;;;;4868585;29;20442;-76
2022/01/11 07:21:37;;;;;;;36.05;18.88;;;;;;;;;;4869969;29;20123;-77
2022/01/11 07:24:03;;;;;;;34.35;18.73;;;;;;;;;;4870263;29;20541;-76
2022/01/11 07:26:34;;;;;;;31.80;17.25;;;;;;;;;;4885696;29;20099;-77
2022/01/11 07:29:00;;;;;;;33.33;17.63;;;;;;;;;;4870209;29;20041;-76
2022/01/11 07:31:27;;;;;;;33.13;18.30;;;;;;;;;;4886076;29;20044;-76
2022/01/11 07:33:55;;;;;;;36.63;18.17;;;;;;;;;;4885560;29;20044;-73
2022/01/11 07:36:21;;;;;;;32.42;17.73;;;;;;;;;;4869798;29;20046;-75
2022/01/11 07:38:47;;;;;;;33.78;17.50;;;;;;;;;;4885692;29;20453;-75
2022/01/11 07:41:13;;;;;;;32.83;18.05;;;;;;;;;;4870022;29;20119;-75
2022/01/11 07:43:39;;;;;;;36.05;18.25;;;;;;;;;;4902225;29;20037;-76
2022/01/11 07:46:05;;;;;;;32.65;18.10;;;;;;;;;;4885522;29;20397;-75
2022/01/11 07:48:31;;;;;;;32.92;19.20;;;;;;;;;;4869775;29;20032;-76
2022/01/11 07:50:57;;;;;;;36.97;18.70;;;;;;;;;;4885556;29;20445;-75
2022/01/11 07:53:24;;;;;;;37.28;19.00;;;;;;;;;;4884840;29;20055;-76
2022/01/11 07:55:50;;;;;;;33.08;16.77;;;;;;;;;;4869190;29;20037;-76
2022/01/11 07:58:16;;;;;;;31.75;17.42;;;;;;;;;;4869420;29;20040;-78
2022/01/11 08:00:42;;;;;;;34.22;17.95;;;;;;;;;;4869301;29;20127;-78
2022/01/11 08:03:09;;;;;;;32.88;17.15;;;;;;;;;;4884936;29;20050;-81
2022/01/11 08:05:35;;;;;;;33.78;17.67;;;;;;;;;;4884182;29;20043;-78
2022/01/11 08:08:01;;;;;;;32.90;18.80;;;;;;;;;;4884840;29;20037;-77
2022/01/11 08:10:27;;;;;;;33.22;18.83;;;;;;;;;;4867839;29;20105;-78
2022/01/11 08:12:53;;;;;;;35.03;17.92;;;;;;;;;;4884127;29;20461;-78
2022/01/11 08:15:19;;;;;;;33.58;17.63;;;;;;;;;;4883438;29;20136;-77
2022/01/11 08:17:46;;;;;;;34.42;16.92;;;;;;;;;;4901222;29;20036;-77
2022/01/11 08:20:13;;;;;;;29.98;16.73;;;;;;;;;;4901446;29;20064;-76
2022/01/11 08:22:39;;;;;;;32.30;18.45;;;;;;;;;;4869658;29;20045;-77
2022/01/11 08:25:06;;;;;;;33.08;17.85;;;;;;;;;;4869244;29;20056;-76
2022/01/11 08:27:34;;;;;;;35.30;19.30;;;;;;;;;;4870085;29;20468;-77
2022/01/11 08:30:05;;;;;;;34.80;19.55;;;;;;;;;;4884253;29;20056;-76
2022/01/11 08:32:31;;;;;;;33.38;18.27;;;;;;;;;;4901526;29;20040;-77
2022/01/11 08:34:57;;;;;;;34.10;18.20;;;;;;;;;;4883980;29;20513;-75
2022/01/11 08:37:26;;;;;;;33.75;17.95;;;;;;;;;;4884587;29;20437;-78
2022/01/11 08:40:00;;;;;;;34.28;17.35;;;;;;;;;;4869352;29;20040;-77
2022/01/11 08:42:47;;;;;;;33.58;18.05;;;;;;;;;;4868713;29;20120;-77
2022/01/11 08:45:13;;;;;;;33.67;18.65;;;;;;;;;;4868371;29;20048;-78
2022/01/11 08:47:53;;;;;;;34.08;17.58;;;;;;;;;;4883654;29;20111;-78
2022/01/11 08:50:25;;;;;;;33.45;17.02;;;;;;;;;;4869324;29;20327;-78
2022/01/11 08:52:52;;;;;;;35.08;19.38;;;;;;;;;;4869408;29;20048;-76
2022/01/11 08:55:18;;;;;;;33.42;18.00;;;;;;;;;;4882721;29;20505;-74
2022/01/11 08:57:44;;;;;;;34.78;17.45;;;;;;;;;;4884482;29;20052;-75
2022/01/11 09:00:16;;;;;;;34.50;17.42;;;;;;;;;;4899269;29;20044;-76
2022/01/11 09:02:47;;;;;;;32.28;18.30;;;;;;;;;;4883936;29;20127;-75
2022/01/11 09:05:13;;;;;;;29.33;16.67;;;;;;;;;;4884635;29;20067;-75
2022/01/11 09:07:39;;;;;;;35.22;17.95;;;;;;;;;;4893865;29;20083;-78
2022/01/11 09:10:06;;;;;;;34.45;18.05;;;;;;;;;;4894254;29;20041;-74
2022/01/11 09:12:32;;;;;;;32.45;17.52;;;;;;;;;;4910239;29;20060;-78
2022/01/11 09:14:58;;;;;;;29.67;16.73;;;;;;;;;;4914419;29;20045;-78
2022/01/11 09:17:24;;;;;;;32.58;17.67;;;;;;;;;;4898598;29;20049;-77
2022/01/11 09:19:50;;;;;;;31.60;17.05;;;;;;;;;;4901484;29;20048;-76
2022/01/11 09:22:16;;;;;;;33.28;19.35;;;;;;;;;;4868286;29;20052;-73
2022/01/11 09:24:42;;;;;;;33.03;17.80;;;;;;;;;;4883577;29;20044;-75
2022/01/11 09:27:08;;;;;;;29.60;18.00;;;;;;;;;;4884006;29;20132;-77
2022/01/11 09:29:38;;;;;;;30.55;16.58;;;;;;;;;;4883315;29;20059;-74
2022/01/11 09:32:05;;;;;;;34.00;17.45;;;;;;;;;;4877974;29;20217;-74
2022/01/11 09:34:32;;;;;;;34.00;18.50;;;;;;;;;;4882958;29;20059;-74
2022/01/11 09:36:58;;;;;;;33.83;18.33;;;;;;;;;;4882438;29;20056;-76
2022/01/11 09:39:25;;;;;;;37.63;19.52;;;;;;;;;;4883598;29;20055;-76
2022/01/11 09:41:52;;;;;;;34.40;17.85;;;;;;;;;;4882137;29;20128;-75
2022/01/11 09:44:18;;;;;;;33.92;18.98;;;;;;;;;;4881500;29;20048;-76
2022/01/11 09:46:44;;;;;;;30.85;16.92;;;;;;;;;;4883520;29;20049;-76
2022/01/11 09:49:10;;;;;;;31.90;18.40;;;;;;;;;;4900112;29;20188;-74
2022/01/11 09:51:37;;;;;;;34.33;18.85;;;;;;;;;;4879814;29;20052;-75
2022/01/11 09:54:04;;;;;;;34.58;19.30;;;;;;;;;;4879356;29;20131;-73
2022/01/11 09:56:30;;;;;;;34.67;18.33;;;;;;;;;;4891843;29;20040;-76
2022/01/11 09:58:57;;;;;;;31.48;17.52;;;;;;;;;;4880603;29;20125;-75
2022/01/11 10:01:23;;;;;;;33.13;17.75;;;;;;;;;;4873880;29;20064;-78
2022/01/11 10:03:56;;;;;;;36.28;18.33;;;;;;;;;;4878353;29;20084;-77
2022/01/11 10:06:24;;;;;;;36.70;20.30;;;;;;;;;;4864436;29;20343;-73
2022/01/11 10:08:50;;;;;;;37.83;20.35;;;;;;;;;;4864363;29;20053;-80
2022/01/11 10:11:39;;;;;;;37.20;19.00;;;;;;;;;;4864318;29;20041;-76
2022/01/11 10:14:22;;;;;;;36.80;19.90;;;;;;;;;;4878982;29;20051;-75
2022/01/11 10:16:49;;;;;;;40.17;19.98;;;;;;;;;;4879917;29;20040;-77
2022/01/11 10:19:22;;;;;;;31.95;18.75;;;;;;;;;;4879027;29;20065;-77
2022/01/11 10:21:50;;;;;;;38.55;18.92;;;;;;;;;;4879326;29;20135;-78
2022/01/11 10:24:22;;;;;;;36.22;19.95;;;;;;;;;;4879825;29;20449;-76
2022/01/11 10:26:48;;;;;;;35.58;21.20;;;;;;;;;;4879656;29;20094;-76
2022/01/11 10:29:25;;;;;;;40.78;21.08;;;;;;;;;;4880184;29;20036;-79
2022/01/11 10:31:52;;;;;;;37.75;20.65;;;;;;;;;;4864429;29;20165;-77
2022/01/11 10:34:25;;;;;;;38.45;19.83;;;;;;;;;;4878134;29;20056;-77
2022/01/11 10:36:52;;;;;;;39.28;21.67;;;;;;;;;;4879966;29;20045;-78
2022/01/11 10:39:29;;;;;;;40.70;21.27;;;;;;;;;;4880553;29;20113;-77
2022/01/11 10:41:56;;;;;;;35.25;19.77;;;;;;;;;;4864280;29;20117;-75
2022/01/11 10:44:41;;;;;;;41.50;20.60;;;;;;;;;;4880497;29;20477;-77
2022/01/11 10:47:08;;;;;;;41.75;21.52;;;;;;;;;;4879369;29;20057;-77
2022/01/11 10:49:35;;;;;;;42.97;22.05;;;;;;;;;;4879114;29;20060;-77
2022/01/11 10:52:17;;;;;;;38.67;21.83;;;;;;;;;;4879605;29;20052;-75
2022/01/11 10:54:43;;;;;;;37.47;20.88;;;;;;;;;;4880664;29;20128;-78
2022/01/11 10:57:20;;;;;;;35.17;19.95;;;;;;;;;;4880591;29;20049;-77
2022/01/11 11:00:05;;;;;;;40.92;21.95;;;;;;;;;;4879363;29;20428;-76
2022/01/11 11:02:31;;;;;;;36.50;19.65;;;;;;;;;;4877828;29;20347;-75
2022/01/11 11:04:58;;;;;;;36.95;20.45;;;;;;;;;;4878895;29;20064;-77
2022/01/11 11:07:27;;;;;;;36.60;20.30;;;;;;;;;;4880113;29;20124;-76
2022/01/11 11:09:54;;;;;;;33.63;20.42;;;;;;;;;;4879502;29;20053;-76
2022/01/11 11:12:21;;;;;;;35.55;21.08;;;;;;;;;;4878948;29;20121;-75
2022/01/11 11:14:49;;;;;;;36.78;20.42;;;;;;;;;;4880161;29;20096;-75
2022/01/11 11:17:35;;;;;;;38.45;21.10;;;;;;;;;;4877529;29;20056;-77
2022/01/11 11:20:03;;;;;;;31.15;18.65;;;;;;;;;;4845965;29;20041;-75
2022/01/11 11:22:30;;;;;;;36.80;20.27;;;;;;;;;;4860735;29;20049;-75
2022/01/11 11:24:56;;;;;;;35.47;20.60;;;;;;;;;;4860861;29;20072;-74
2022/01/11 11:27:24;;;;;;;34.35;20.15;;;;;;;;;;4865721;29;20566;-74
2022/01/11 11:29:50;;;;;;;36.28;20.25;;;;;;;;;;4879394;29;20473;-76
2022/01/11 11:32:20;;;;;;;34.53;18.05;;;;;;;;;;4880255;29;20049;-75
2022/01/11 11:34:50;;;;;;;34.20;19.42;;;;;;;;;;4880290;29;20049;-74
2022/01/11 11:37:36;;;;;;;36.13;20.13;;;;;;;;;;4879988;29;20076;-75
2022/01/11 11:40:04;;;;;;;38.20;20.05;;;;;;;;;;4879003;29;20063;-74
2022/01/11 11:42:31;;;;;;;33.78;19.27;;;;;;;;;;4879099;29;20124;-76
2022/01/11 11:44:59;;;;;;;35.15;18.95;;;;;;;;;;4879193;29;20374;-73
2022/01/11 11:47:35;;;;;;;39.92;20.75;;;;;;;;;;4881661;29;20090;-74
2022/01/11 11:50:03;;;;;;;38.30;20.98;;;;;;;;;;4881450;29;20049;-75
2022/01/11 11:52:39;;;;;;;33.28;18.85;;;;;;;;;;4882111;29;20052;-75
2022/01/11 11:55:19;;;;;;;34.57;21.50;;;;;;;;;;4882689;29;20053;-74
2022/01/11 11:57:46;;;;;;;38.13;20.33;;;;;;;;;;4866517;29;20449;-73
2022/01/11 12:00:17;;;;;;;32.80;19.17;;;;;;;;;;4882381;29;20080;-72
2022/01/11 12:02:45;;;;;;;34.05;19.42;;;;;;;;;;4902064;29;20071;-74
2022/01/11 12:05:12;;;;;;;35.30;19.13;;;;;;;;;;4885066;29;20045;-73
2022/01/11 12:07:44;;;;;;;35.03;19.88;;;;;;;;;;4901448;29;20048;-74
2022/01/11 12:10:15;;;;;;;35.75;20.17;;;;;;;;;;4901784;29;20048;-74
2022/01/11 12:12:52;;;;;;;30.58;17.90;;;;;;;;;;4901477;29;20048;-74
2022/01/11 12:15:35;;;;;;;32.45;17.95;;;;;;;;;;4885579;29;20044;-73
2022/01/11 12:18:01;;;;;;;30.67;17.58;;;;;;;;;;4883560;29;20517;-72
2022/01/11 12:20:47;;;;;;;32.97;19.88;;;;;;;;;;4885259;29;20084;-74
2022/01/11 12:23:20;;;;;;;32.43;17.93;;;;;;;;;;4899405;29;20357;-77
2022/01/11 12:25:50;;;;;;;33.20;19.55;;;;;;;;;;4883014;29;20569;-78
2022/01/11 12:28:17;;;;;;;30.52;17.42;;;;;;;;;;4866811;29;20032;-74
2022/01/11 12:30:43;;;;;;;33.50;18.10;;;;;;;;;;4882982;29;20052;-76
2022/01/11 12:33:11;;;;;;;31.52;17.92;;;;;;;;;;4882997;29;20084;-74
2022/01/11 12:35:50;;;;;;;34.78;17.92;;;;;;;;;;4866886;29;20465;-75
2022/01/11 12:38:16;;;;;;;32.05;18.42;;;;;;;;;;4884926;29;20454;-73
2022/01/11 12:40:44;;;;;;;35.08;17.75;;;;;;;;;;4901834;29;20123;-76
2022/01/11 12:43:18;;;;;;;33.35;18.52;;;;;;;;;;4901071;29;20373;-75
2022/01/11 12:46:05;;;;;;;29.25;16.55;;;;;;;;;;4885062;29;20091;-75
2022/01/11 12:48:50;;;;;;;29.80;18.33;;;;;;;;;;4891810;29;20413;-75
2022/01/11 12:51:20;;;;;;;31.38;18.05;;;;;;;;;;4884706;29;20177;-76
2022/01/11 12:53:46;;;;;;;31.63;18.88;;;;;;;;;;4900567;29;20084;-75
2022/01/11 12:56:12;;;;;;;32.38;17.40;;;;;;;;;;4900379;29;20109;-74
2022/01/11 12:58:38;;;;;;;28.95;16.45;;;;;;;;;;4900396;29;20051;-75
2022/01/11 13:01:21;;;;;;;33.78;18.05;;;;;;;;;;4884864;29;20048;-75
2022/01/11 13:03:56;;;;;;;31.00;16.65;;;;;;;;;;4884325;29;20064;-74
2022/01/11 13:06:22;;;;;;;28.00;16.65;;;;;;;;;;4900597;29;20495;-75
2022/01/11 13:08:53;;;;;;;28.77;16.25;;;;;;;;;;4883719;29;20052;-74
2022/01/11 13:11:20;;;;;;;32.10;19.13;;;;;;;;;;4882857;29;20059;-76
2022/01/11 13:13:55;;;;;;;29.60;16.80;;;;;;;;;;4880118;29;20395;-72
2022/01/11 13:16:22;;;;;;;32.22;17.73;;;;;;;;;;4883792;29;20052;-73
2022/01/11 13:18:48;;;;;;;30.70;17.13;;;;;;;;;;4883334;29;20076;-74
2022/01/11 13:21:14;;;;;;;29.65;16.67;;;;;;;;;;4868637;29;20123;-74
2022/01/11 13:23:46;;;;;;;30.23;16.48;;;;;;;;;;4883925;29;20056;-76
2022/01/11 13:26:17;;;;;;;29.27;17.27;;;;;;;;;;4884179;29;20056;-74
2022/01/11 13:28:48;;;;;;;29.40;16.52;;;;;;;;;;4884251;29;20048;-74
2022/01/11 13:31:20;;;;;;;30.33;16.50;;;;;;;;;;4883903;29;20308;-76
2022/01/11 13:33:48;;;;;;;28.70;16.30;;;;;;;;;;4883391;29;20045;-74
2022/01/11 13:36:17;;;;;;;29.63;16.83;;;;;;;;;;4883655;29;20056;-75
2022/01/11 13:38:55;;;;;;;32.28;18.80;;;;;;;;;;4883673;29;20123;-74
2022/01/11 13:41:31;;;;;;;33.08;17.88;;;;;;;;;;4900064;29;20059;-74
2022/01/11 13:43:59;;;;;;;32.65;16.80;;;;;;;;;;4883745;29;20044;-74
2022/01/11 13:46:27;;;;;;;28.77;15.88;;;;;;;;;;4883504;29;20063;-75
2022/01/11 13:48:54;;;;;;;28.98;15.85;;;;;;;;;;4883515;29;20063;-76
2022/01/11 13:51:28;;;;;;;28.77;15.75;;;;;;;;;;4882649;29;20051;-74
2022/01/11 13:53:59;;;;;;;30.40;16.50;;;;;;;;;;4883976;29;20063;-75
2022/01/11 13:56:30;;;;;;;27.45;16.90;;;;;;;;;;4883568;29;20044;-74
2022/01/11 13:58:56;;;;;;;33.42;17.05;;;;;;;;;;4882976;29;20445;-74
2022/01/11 14:01:24;;;;;;;29.90;16.58;;;;;;;;;;4891932;29;20049;-74
2022/01/11 14:03:51;;;;;;;27.83;15.70;;;;;;;;;;4891714;29;20045;-77
2022/01/11 14:06:18;;;;;;;28.80;15.13;;;;;;;;;;4894557;29;20151;-77
2022/01/11 14:08:48;;;;;;;26.40;15.75;;;;;;;;;;4904018;29;20053;-77
2022/01/11 14:11:23;;;;;;;27.45;15.60;;;;;;;;;;4900037;29;20056;-76
2022/01/11 14:13:50;;;;;;;25.63;15.30;;;;;;;;;;4883478;29;20123;-78
2022/01/11 14:16:18;;;;;;;25.45;15.20;;;;;;;;;;4898323;29;20052;-75
2022/01/11 14:19:00;;;;;;;28.17;15.77;;;;;;;;;;4866841;29;20513;-75
2022/01/11 14:21:26;;;;;;;28.48;15.85;;;;;;;;;;4880451;29;20355;-75
2022/01/11 14:23:53;;;;;;;25.08;14.85;;;;;;;;;;4869893;29;20053;-73
2022/01/11 14:26:21;;;;;;;29.77;16.73;;;;;;;;;;4882816;29;20048;-75
2022/01/11 14:28:51;;;;;;;28.77;15.50;;;;;;;;;;4867492;29;20049;-75
2022/01/11 14:31:17;;;;;;;26.08;15.80;;;;;;;;;;4881895;29;20045;-74
2022/01/11 14:33:44;;;;;;;29.38;15.18;;;;;;;;;;4882601;29;20341;-75
2022/01/11 14:36:21;;;;;;;23.83;13.98;;;;;;;;;;4879921;29;20673;-74
2022/01/11 14:38:55;;;;;;;24.90;14.63;;;;;;;;;;4892141;29;20434;-74
2022/01/11 14:41:22;;;;;;;25.70;14.00;;;;;;;;;;4882379;29;20129;-74
2022/01/11 14:43:59;;;;;;;22.35;13.88;;;;;;;;;;4880738;29;20517;-76
2022/01/11 14:46:25;;;;;;;27.27;14.32;;;;;;;;;;4882570;29;20049;-74
2022/01/11 14:48:52;;;;;;;24.10;14.13;;;;;;;;;;4883146;29;20057;-73
2022/01/11 14:51:23;;;;;;;24.33;15.15;;;;;;;;;;4882421;29;20497;-75
2022/01/11 14:53:51;;;;;;;21.25;13.32;;;;;;;;;;4882880;29;20525;-74
2022/01/11 14:56:19;;;;;;;23.60;13.77;;;;;;;;;;4882828;29;20052;-74
2022/01/11 14:58:50;;;;;;;27.27;14.10;;;;;;;;;;4882246;29;20356;-75
2022/01/11 15:01:19;;;;;;;22.33;13.82;;;;;;;;;;4898608;29;20473;-74
2022/01/11 15:03:47;;;;;;;21.10;12.30;;;;;;;;;;4880044;29;20050;-75
2022/01/11 15:06:22;;;;;;;21.55;13.45;;;;;;;;;;4881723;29;20115;-73
2022/01/11 15:08:53;;;;;;;24.65;14.25;;;;;;;;;;4881930;29;20405;-74
2022/01/11 15:11:21;;;;;;;25.45;15.35;;;;;;;;;;4881835;29;20121;-75
2022/01/11 15:13:52;;;;;;;24.42;13.98;;;;;;;;;;4880795;29;20049;-77
2022/01/11 15:16:23;;;;;;;25.10;13.93;;;;;;;;;;4881259;29;20100;-81
2022/01/11 15:18:49;;;;;;;22.30;13.27;;;;;;;;;;4899092;29;20067;-75
2022/01/11 15:21:18;;;;;;;24.27;14.30;;;;;;;;;;4884900;29;20360;-75
2022/01/11 15:23:44;;;;;;;26.70;13.80;;;;;;;;;;4901714;29;20067;-76
2022/01/11 15:26:10;;;;;;;24.35;13.70;;;;;;;;;;4885277;29;20384;-74
2022/01/11 15:28:36;;;;;;;25.42;14.40;;;;;;;;;;4901844;29;20048;-75
2022/01/11 15:31:02;;;;;;;23.35;14.10;;;;;;;;;;4885677;29;20041;-75
2022/01/11 15:33:29;;;;;;;23.23;13.05;;;;;;;;;;4886058;29;20057;-74
2022/01/11 15:35:55;;;;;;;23.50;13.48;;;;;;;;;;4886194;29;20103;-75
2022/01/11 15:38:21;;;;;;;24.20;14.25;;;;;;;;;;4902034;29;20044;-82
2022/01/11 15:40:47;;;;;;;22.25;13.07;;;;;;;;;;4902098;29;20041;-74
2022/01/11 15:43:13;;;;;;;24.20;14.45;;;;;;;;;;4901932;29;20104;-76
2022/01/11 15:45:39;;;;;;;25.02;13.73;;;;;;;;;;4886150;29;20059;-75
2022/01/11 15:48:06;;;;;;;21.25;13.10;;;;;;;;;;4902241;29;20137;-76
2022/01/11 15:50:32;;;;;;;24.92;14.15;;;;;;;;;;4885658;29;20104;-75
2022/01/11 15:52:58;;;;;;;21.27;13.38;;;;;;;;;;4885496;29;20051;-75
2022/01/11 15:55:24;;;;;;;22.05;13.35;;;;;;;;;;4883946;29;20044;-75
2022/01/11 15:57:51;;;;;;;19.92;12.50;;;;;;;;;;4901657;29;20169;-75
2022/01/11 16:00:17;;;;;;;20.75;12.63;;;;;;;;;;4885408;29;20131;-76
2022/01/11 16:02:43;;;;;;;23.13;12.90;;;;;;;;;;4901238;29;20057;-77
2022/01/11 16:05:09;;;;;;;24.25;13.18;;;;;;;;;;4885352;29;20063;-76
2022/01/11 16:07:35;;;;;;;21.90;12.38;;;;;;;;;;4901578;29;20056;-75
2022/01/11 16:10:01;;;;;;;24.05;13.27;;;;;;;;;;4901950;29;20048;-76
2022/01/11 16:12:27;;;;;;;21.20;11.93;;;;;;;;;;4885012;29;20048;-75
2022/01/11 16:14:54;;;;;;;21.83;12.68;;;;;;;;;;4901561;29;20055;-76
2022/01/11 16:17:20;;;;;;;20.55;13.43;;;;;;;;;;4901018;29;20438;-76
2022/01/11 16:19:46;;;;;;;22.02;12.50;;;;;;;;;;4884869;29;20056;-74
2022/01/11 16:22:12;;;;;;;20.52;13.32;;;;;;;;;;4901916;29;20089;-77
2022/01/11 16:24:38;;;;;;;23.85;14.02;;;;;;;;;;4884313;29;20048;-75
2022/01/11 16:27:04;;;;;;;25.05;13.63;;;;;;;;;;4885333;29;20165;-75
2022/01/11 16:29:32;;;;;;;19.80;12.13;;;;;;;;;;4885500;29;20059;-77
2022/01/11 16:31:58;;;;;;;24.02;12.88;;;;;;;;;;4883414;29;20052;-76
2022/01/11 16:34:24;;;;;;;20.48;12.45;;;;;;;;;;4884909;29;20059;-76
2022/01/11 16:36:51;;;;;;;23.35;13.13;;;;;;;;;;4884910;29;20048;-77
2022/01/11 16:39:24;;;;;;;22.75;13.35;;;;;;;;;;4884281;29;20369;-77
2022/01/11 16:44:39;;;;;;;21.55;13.70;;;;;;;;;;4882737;29;20041;-78
2022/01/11 16:47:09;;;;;;;22.48;13.77;;;;;;;;;;4860346;29;20040;-78
2022/01/11 16:49:35;;;;;;;26.33;14.27;;;;;;;;;;4884502;29;20048;-76
2022/01/11 16:52:01;;;;;;;20.38;12.80;;;;;;;;;;4884226;29;20049;-78
2022/01/11 16:54:30;;;;;;;24.85;14.48;;;;;;;;;;4884223;29;20040;-82
2022/01/11 16:56:59;;;;;;;23.15;13.35;;;;;;;;;;4884227;29;20049;-75
2022/01/11 16:59:25;;;;;;;21.83;13.32;;;;;;;;;;4868847;29;20131;-76
2022/01/11 17:01:53;;;;;;;22.02;13.82;;;;;;;;;;4883540;29;20052;-77
2022/01/11 17:04:21;;;;;;;22.73;13.38;;;;;;;;;;4868813;29;20406;-76
2022/01/11 17:06:47;;;;;;;23.15;14.13;;;;;;;;;;4868687;29;20047;-77
2022/01/11 17:09:13;;;;;;;24.65;13.88;;;;;;;;;;4884100;29;20456;-77
2022/01/11 17:11:39;;;;;;;23.00;13.80;;;;;;;;;;4884018;29;20048;-77
2022/01/11 17:14:05;;;;;;;25.55;13.93;;;;;;;;;;4868820;29;20425;-77
2022/01/11 17:16:31;;;;;;;21.60;13.80;;;;;;;;;;4884034;29;20067;-76
2022/01/11 17:18:57;;;;;;;23.25;13.57;;;;;;;;;;4883999;29;20048;-77
2022/01/11 17:21:23;;;;;;;21.42;13.27;;;;;;;;;;4884341;29;20040;-78
2022/01/11 17:23:50;;;;;;;23.20;14.40;;;;;;;;;;4868237;29;20084;-76
2022/01/11 17:26:16;;;;;;;22.33;13.90;;;;;;;;;;4883823;29;20124;-78
2022/01/11 17:28:42;;;;;;;21.17;13.32;;;;;;;;;;4883821;29;20055;-78
2022/01/11 17:31:09;;;;;;;23.63;14.00;;;;;;;;;;4883583;29;20044;-78
2022/01/11 17:33:35;;;;;;;24.13;13.90;;;;;;;;;;4898489;29;20100;-77
2022/01/11 17:36:01;;;;;;;22.35;13.40;;;;;;;;;;4883408;29;20492;-77
2022/01/11 17:38:28;;;;;;;24.80;14.30;;;;;;;;;;4883151;29;20048;-76
2022/01/11 17:40:55;;;;;;;25.17;14.65;;;;;;;;;;4883818;29;20052;-76
2022/01/11 17:43:21;;;;;;;23.40;14.25;;;;;;;;;;4899842;29;20075;-77
2022/01/11 17:45:47;;;;;;;23.67;14.32;;;;;;;;;;4867349;29;20076;-79
2022/01/11 17:48:13;;;;;;;24.50;14.82;;;;;;;;;;4883628;29;20036;-78
2022/01/11 17:50:39;;;;;;;26.65;14.57;;;;;;;;;;4868306;29;20040;-77
2022/01/11 17:53:05;;;;;;;27.92;14.95;;;;;;;;;;4882413;29;20376;-77
2022/01/11 17:55:36;;;;;;;26.85;16.73;;;;;;;;;;4866500;29;20111;-76
2022/01/11 17:58:02;;;;;;;27.83;16.15;;;;;;;;;;4882494;29;20414;-80
2022/01/11 18:01:18;;;;;;;30.23;17.10;;;;;;;;;;4882250;29;20060;-83
2022/01/11 18:03:45;;;;;;;31.88;16.58;;;;;;;;;;4891174;29;20053;-80
2022/01/11 18:06:11;;;;;;;29.45;17.05;;;;;;;;;;4863238;29;20347;-80